<?xml version="1.0" encoding="UTF-8"?>
<gpx version="1.1" creator="Endomondo.com" xsi:schemaLocation="http://www.topografix.com/GPX/1/1 http://www.topografix.com/GPX/1/1/gpx.xsd http://www.garmin.com/xmlschemas/GpxExtensions/v3 http://www.garmin.com/xmlschemas/GpxExtensionsv3.xsd http://www.garmin.com/xmlschemas/TrackPointExtension/v1 http://www.garmin.com/xmlschemas/TrackPointExtensionv1.xsd" xmlns="http://www.topografix.com/GPX/1/1" xmlns:gpxtpx="http://www.garmin.com/xmlschemas/TrackPointExtension/v1" xmlns:gpxx="http://www.garmin.com/xmlschemas/GpxExtensions/v3" xmlns:xsi="http://www.w3.org/2001/XMLSchema-instance">
  <metadata>
    <author>
      <name>jose manuel</name>
      <email id="jmanuelguerrero" domain="gmail.com"/>
    </author>
    <link href="http://www.endomondo.com">
      <text>Endomondo</text>
    </link>
    <time>2016-08-24T09:33:13Z</time>
  </metadata>
  <trk>
    <src>http://www.endomondo.com/</src>
    <link href="https://www.endomondo.com/workouts/718350269/159315">
      <text>endomondo</text>
    </link>
    <type>HIKING</type>
    <trkseg>
      <trkpt lat="42.8732187" lon="-5.3749063">
        <time>2016-05-03T15:07:22Z</time>
      </trkpt>
      <trkpt lat="42.8732187" lon="-5.3749063">
        <ele>1549.0</ele>
        <time>2016-05-03T15:07:27Z</time>
      </trkpt>
      <trkpt lat="42.8732656" lon="-5.3749019">
        <ele>1549.0</ele>
        <time>2016-05-03T15:07:32Z</time>
      </trkpt>
      <trkpt lat="42.8733139" lon="-5.3748958">
        <ele>1550.0</ele>
        <time>2016-05-03T15:07:51Z</time>
      </trkpt>
      <trkpt lat="42.8732785" lon="-5.3748564">
        <ele>1550.6</ele>
        <time>2016-05-03T15:13:25Z</time>
      </trkpt>
      <trkpt lat="42.8732305" lon="-5.3748346">
        <ele>1550.5</ele>
        <time>2016-05-03T15:16:28Z</time>
      </trkpt>
      <trkpt lat="42.8731113" lon="-5.3747279">
        <ele>1550.5</ele>
        <time>2016-05-03T15:16:32Z</time>
      </trkpt>
      <trkpt lat="42.8730006" lon="-5.3746208">
        <ele>1550.5</ele>
        <time>2016-05-03T15:16:34Z</time>
      </trkpt>
      <trkpt lat="42.8729474" lon="-5.3744413">
        <ele>1550.4</ele>
        <time>2016-05-03T15:16:36Z</time>
      </trkpt>
      <trkpt lat="42.8728169" lon="-5.3742658">
        <ele>1550.4</ele>
        <time>2016-05-03T15:16:39Z</time>
      </trkpt>
      <trkpt lat="42.8726857" lon="-5.3741547">
        <ele>1550.1</ele>
        <time>2016-05-03T15:16:41Z</time>
      </trkpt>
      <trkpt lat="42.8725835" lon="-5.3740223">
        <ele>1550.1</ele>
        <time>2016-05-03T15:16:43Z</time>
      </trkpt>
      <trkpt lat="42.8724796" lon="-5.3738703">
        <ele>1550.1</ele>
        <time>2016-05-03T15:16:46Z</time>
      </trkpt>
      <trkpt lat="42.8723327" lon="-5.3738349">
        <ele>1550.0</ele>
        <time>2016-05-03T15:16:48Z</time>
      </trkpt>
      <trkpt lat="42.8721635" lon="-5.3739043">
        <ele>1550.0</ele>
        <time>2016-05-03T15:16:50Z</time>
      </trkpt>
      <trkpt lat="42.8719825" lon="-5.3739617">
        <ele>1549.7</ele>
        <time>2016-05-03T15:16:53Z</time>
      </trkpt>
      <trkpt lat="42.871861" lon="-5.373984">
        <ele>1549.7</ele>
        <time>2016-05-03T15:16:55Z</time>
      </trkpt>
      <trkpt lat="42.8717185" lon="-5.374029">
        <ele>1549.6</ele>
        <time>2016-05-03T15:16:57Z</time>
      </trkpt>
      <trkpt lat="42.8714606" lon="-5.3741841">
        <ele>1549.4</ele>
        <time>2016-05-03T15:17:00Z</time>
      </trkpt>
      <trkpt lat="42.8712351" lon="-5.3743431">
        <ele>1548.8</ele>
        <time>2016-05-03T15:17:03Z</time>
      </trkpt>
      <trkpt lat="42.8711196" lon="-5.3744743">
        <ele>1547.8</ele>
        <time>2016-05-03T15:17:05Z</time>
      </trkpt>
      <trkpt lat="42.8710512" lon="-5.3746357">
        <ele>1546.5</ele>
        <time>2016-05-03T15:17:07Z</time>
      </trkpt>
      <trkpt lat="42.8709647" lon="-5.3748139">
        <ele>1545.2</ele>
        <time>2016-05-03T15:17:09Z</time>
      </trkpt>
      <trkpt lat="42.8708927" lon="-5.3749921">
        <ele>1544.7</ele>
        <time>2016-05-03T15:17:11Z</time>
      </trkpt>
      <trkpt lat="42.8708658" lon="-5.3752267">
        <ele>1544.2</ele>
        <time>2016-05-03T15:17:13Z</time>
      </trkpt>
      <trkpt lat="42.8708685" lon="-5.3754816">
        <ele>1543.7</ele>
        <time>2016-05-03T15:17:15Z</time>
      </trkpt>
      <trkpt lat="42.8708402" lon="-5.3756939">
        <ele>1543.3</ele>
        <time>2016-05-03T15:17:17Z</time>
      </trkpt>
      <trkpt lat="42.8707186" lon="-5.375902">
        <ele>1543.2</ele>
        <time>2016-05-03T15:17:20Z</time>
      </trkpt>
      <trkpt lat="42.8705546" lon="-5.3760338">
        <ele>1543.2</ele>
        <time>2016-05-03T15:17:23Z</time>
      </trkpt>
      <trkpt lat="42.8704085" lon="-5.3760344">
        <ele>1543.2</ele>
        <time>2016-05-03T15:17:26Z</time>
      </trkpt>
      <trkpt lat="42.8703647" lon="-5.3758606">
        <ele>1543.2</ele>
        <time>2016-05-03T15:17:29Z</time>
      </trkpt>
      <trkpt lat="42.870483" lon="-5.375643">
        <ele>1543.2</ele>
        <time>2016-05-03T15:17:32Z</time>
      </trkpt>
      <trkpt lat="42.8706777" lon="-5.3755673">
        <ele>1543.2</ele>
        <time>2016-05-03T15:17:34Z</time>
      </trkpt>
      <trkpt lat="42.8709805" lon="-5.375656">
        <ele>1543.2</ele>
        <time>2016-05-03T15:17:37Z</time>
      </trkpt>
      <trkpt lat="42.8711455" lon="-5.3759076">
        <ele>1543.2</ele>
        <time>2016-05-03T15:17:39Z</time>
      </trkpt>
      <trkpt lat="42.8712035" lon="-5.3762019">
        <ele>1543.6</ele>
        <time>2016-05-03T15:17:41Z</time>
      </trkpt>
      <trkpt lat="42.8711673" lon="-5.3764376">
        <ele>1544.1</ele>
        <time>2016-05-03T15:17:43Z</time>
      </trkpt>
      <trkpt lat="42.871093" lon="-5.3766108">
        <ele>1544.5</ele>
        <time>2016-05-03T15:17:45Z</time>
      </trkpt>
      <trkpt lat="42.8709575" lon="-5.3767529">
        <ele>1546.2</ele>
        <time>2016-05-03T15:17:48Z</time>
      </trkpt>
      <trkpt lat="42.8708133" lon="-5.3767248">
        <ele>1550.1</ele>
        <time>2016-05-03T15:17:51Z</time>
      </trkpt>
      <trkpt lat="42.8707205" lon="-5.3765791">
        <ele>1552.2</ele>
        <time>2016-05-03T15:17:54Z</time>
      </trkpt>
      <trkpt lat="42.8707185" lon="-5.376366">
        <ele>1556.5</ele>
        <time>2016-05-03T15:17:57Z</time>
      </trkpt>
      <trkpt lat="42.8707776" lon="-5.3761913">
        <ele>1557.6</ele>
        <time>2016-05-03T15:17:59Z</time>
      </trkpt>
      <trkpt lat="42.8709041" lon="-5.3760164">
        <ele>1558.9</ele>
        <time>2016-05-03T15:18:01Z</time>
      </trkpt>
      <trkpt lat="42.8711109" lon="-5.3759118">
        <ele>1559.6</ele>
        <time>2016-05-03T15:18:03Z</time>
      </trkpt>
      <trkpt lat="42.8713308" lon="-5.3759515">
        <ele>1560.2</ele>
        <time>2016-05-03T15:18:05Z</time>
      </trkpt>
      <trkpt lat="42.8715307" lon="-5.3761176">
        <ele>1560.8</ele>
        <time>2016-05-03T15:18:07Z</time>
      </trkpt>
      <trkpt lat="42.8716578" lon="-5.376392">
        <ele>1561.3</ele>
        <time>2016-05-03T15:18:09Z</time>
      </trkpt>
      <trkpt lat="42.8716359" lon="-5.3766412">
        <ele>1561.7</ele>
        <time>2016-05-03T15:18:11Z</time>
      </trkpt>
      <trkpt lat="42.8715437" lon="-5.3768025">
        <ele>1563.4</ele>
        <time>2016-05-03T15:18:13Z</time>
      </trkpt>
      <trkpt lat="42.8714338" lon="-5.3769567">
        <ele>1567.6</ele>
        <time>2016-05-03T15:18:16Z</time>
      </trkpt>
      <trkpt lat="42.8713573" lon="-5.377225">
        <ele>1570.2</ele>
        <time>2016-05-03T15:18:19Z</time>
      </trkpt>
      <trkpt lat="42.8713483" lon="-5.3774551">
        <ele>1571.3</ele>
        <time>2016-05-03T15:18:21Z</time>
      </trkpt>
      <trkpt lat="42.8712962" lon="-5.3776655">
        <ele>1572.7</ele>
        <time>2016-05-03T15:18:23Z</time>
      </trkpt>
      <trkpt lat="42.871161" lon="-5.3778309">
        <ele>1573.9</ele>
        <time>2016-05-03T15:18:26Z</time>
      </trkpt>
      <trkpt lat="42.8710322" lon="-5.3779565">
        <ele>1574.8</ele>
        <time>2016-05-03T15:18:30Z</time>
      </trkpt>
      <trkpt lat="42.8708992" lon="-5.3780199">
        <ele>1575.1</ele>
        <time>2016-05-03T15:18:33Z</time>
      </trkpt>
      <trkpt lat="42.8708192" lon="-5.3779489">
        <ele>1576.0</ele>
        <time>2016-05-03T15:18:35Z</time>
      </trkpt>
      <trkpt lat="42.8707793" lon="-5.3778811">
        <ele>1576.0</ele>
        <time>2016-05-03T15:18:36Z</time>
      </trkpt>
      <trkpt lat="42.8707463" lon="-5.3778234">
        <ele>1576.0</ele>
        <time>2016-05-03T15:18:37Z</time>
      </trkpt>
      <trkpt lat="42.8707136" lon="-5.377776">
        <ele>1576.0</ele>
        <time>2016-05-03T15:18:38Z</time>
      </trkpt>
      <trkpt lat="42.8706907" lon="-5.3777177">
        <ele>1576.0</ele>
        <time>2016-05-03T15:18:39Z</time>
      </trkpt>
      <trkpt lat="42.870638" lon="-5.377506">
        <ele>1576.0</ele>
        <time>2016-05-03T15:18:42Z</time>
      </trkpt>
      <trkpt lat="42.8705687" lon="-5.3773107">
        <ele>1576.0</ele>
        <time>2016-05-03T15:18:45Z</time>
      </trkpt>
      <trkpt lat="42.8704799" lon="-5.3771014">
        <ele>1576.0</ele>
        <time>2016-05-03T15:18:49Z</time>
      </trkpt>
      <trkpt lat="42.8703791" lon="-5.3769121">
        <ele>1576.0</ele>
        <time>2016-05-03T15:18:52Z</time>
      </trkpt>
      <trkpt lat="42.8702974" lon="-5.376744">
        <ele>1576.0</ele>
        <time>2016-05-03T15:18:55Z</time>
      </trkpt>
      <trkpt lat="42.8702329" lon="-5.3765518">
        <ele>1576.0</ele>
        <time>2016-05-03T15:18:58Z</time>
      </trkpt>
      <trkpt lat="42.8701161" lon="-5.3763436">
        <ele>1576.0</ele>
        <time>2016-05-03T15:19:01Z</time>
      </trkpt>
      <trkpt lat="42.8700389" lon="-5.376192">
        <ele>1576.0</ele>
        <time>2016-05-03T15:19:04Z</time>
      </trkpt>
      <trkpt lat="42.869903" lon="-5.3760715">
        <ele>1575.3</ele>
        <time>2016-05-03T15:19:08Z</time>
      </trkpt>
      <trkpt lat="42.8697793" lon="-5.3759727">
        <ele>1570.2</ele>
        <time>2016-05-03T15:19:12Z</time>
      </trkpt>
      <trkpt lat="42.8696837" lon="-5.3758544">
        <ele>1568.0</ele>
        <time>2016-05-03T15:19:15Z</time>
      </trkpt>
      <trkpt lat="42.869543" lon="-5.3757935">
        <ele>1566.8</ele>
        <time>2016-05-03T15:19:18Z</time>
      </trkpt>
      <trkpt lat="42.8694049" lon="-5.3757066">
        <ele>1562.5</ele>
        <time>2016-05-03T15:19:22Z</time>
      </trkpt>
      <trkpt lat="42.869161" lon="-5.3755568">
        <ele>1560.4</ele>
        <time>2016-05-03T15:19:27Z</time>
      </trkpt>
      <trkpt lat="42.869008" lon="-5.3754195">
        <ele>1557.6</ele>
        <time>2016-05-03T15:19:30Z</time>
      </trkpt>
      <trkpt lat="42.8689092" lon="-5.3752278">
        <ele>1555.4</ele>
        <time>2016-05-03T15:19:33Z</time>
      </trkpt>
      <trkpt lat="42.8688243" lon="-5.3750164">
        <ele>1552.4</ele>
        <time>2016-05-03T15:19:36Z</time>
      </trkpt>
      <trkpt lat="42.8687212" lon="-5.3748516">
        <ele>1550.1</ele>
        <time>2016-05-03T15:19:39Z</time>
      </trkpt>
      <trkpt lat="42.8686164" lon="-5.3748254">
        <ele>1549.2</ele>
        <time>2016-05-03T15:19:41Z</time>
      </trkpt>
      <trkpt lat="42.8685047" lon="-5.3748098">
        <ele>1547.9</ele>
        <time>2016-05-03T15:19:43Z</time>
      </trkpt>
      <trkpt lat="42.8683191" lon="-5.37482">
        <ele>1546.3</ele>
        <time>2016-05-03T15:19:46Z</time>
      </trkpt>
      <trkpt lat="42.8682126" lon="-5.3748307">
        <ele>1545.3</ele>
        <time>2016-05-03T15:19:48Z</time>
      </trkpt>
      <trkpt lat="42.8681499" lon="-5.3748157">
        <ele>1545.3</ele>
        <time>2016-05-03T15:19:49Z</time>
      </trkpt>
      <trkpt lat="42.8680926" lon="-5.3748009">
        <ele>1545.3</ele>
        <time>2016-05-03T15:19:50Z</time>
      </trkpt>
      <trkpt lat="42.8680389" lon="-5.3747816">
        <ele>1545.3</ele>
        <time>2016-05-03T15:19:51Z</time>
      </trkpt>
      <trkpt lat="42.8679874" lon="-5.3747693">
        <ele>1545.3</ele>
        <time>2016-05-03T15:19:52Z</time>
      </trkpt>
      <trkpt lat="42.8678717" lon="-5.3747048">
        <ele>1545.3</ele>
        <time>2016-05-03T15:19:54Z</time>
      </trkpt>
      <trkpt lat="42.8678295" lon="-5.3746501">
        <ele>1545.3</ele>
        <time>2016-05-03T15:19:55Z</time>
      </trkpt>
      <trkpt lat="42.8678005" lon="-5.3745861">
        <ele>1545.3</ele>
        <time>2016-05-03T15:19:56Z</time>
      </trkpt>
      <trkpt lat="42.8677756" lon="-5.374525">
        <ele>1545.3</ele>
        <time>2016-05-03T15:19:57Z</time>
      </trkpt>
      <trkpt lat="42.8677533" lon="-5.3744712">
        <ele>1545.3</ele>
        <time>2016-05-03T15:19:58Z</time>
      </trkpt>
      <trkpt lat="42.8676263" lon="-5.3743754">
        <ele>1545.3</ele>
        <time>2016-05-03T15:20:02Z</time>
      </trkpt>
      <trkpt lat="42.8675168" lon="-5.3744119">
        <ele>1545.3</ele>
        <time>2016-05-03T15:20:06Z</time>
      </trkpt>
      <trkpt lat="42.867461" lon="-5.3744415">
        <ele>1545.3</ele>
        <time>2016-05-03T15:20:08Z</time>
      </trkpt>
      <trkpt lat="42.8673975" lon="-5.3744431">
        <ele>1545.3</ele>
        <time>2016-05-03T15:20:10Z</time>
      </trkpt>
      <trkpt lat="42.8673283" lon="-5.3744158">
        <ele>1545.3</ele>
        <time>2016-05-03T15:20:12Z</time>
      </trkpt>
      <trkpt lat="42.8672732" lon="-5.3743763">
        <ele>1545.0</ele>
        <time>2016-05-03T15:20:14Z</time>
      </trkpt>
      <trkpt lat="42.8672153" lon="-5.3743125">
        <ele>1545.0</ele>
        <time>2016-05-03T15:20:16Z</time>
      </trkpt>
      <trkpt lat="42.8671718" lon="-5.3742182">
        <ele>1545.0</ele>
        <time>2016-05-03T15:20:18Z</time>
      </trkpt>
      <trkpt lat="42.8671318" lon="-5.3740388">
        <ele>1545.0</ele>
        <time>2016-05-03T15:20:21Z</time>
      </trkpt>
      <trkpt lat="42.8670205" lon="-5.3738369">
        <ele>1545.0</ele>
        <time>2016-05-03T15:20:25Z</time>
      </trkpt>
      <trkpt lat="42.8669553" lon="-5.3736213">
        <ele>1545.0</ele>
        <time>2016-05-03T15:20:28Z</time>
      </trkpt>
      <trkpt lat="42.8669276" lon="-5.3734225">
        <ele>1545.0</ele>
        <time>2016-05-03T15:20:31Z</time>
      </trkpt>
      <trkpt lat="42.8669119" lon="-5.3731627">
        <ele>1545.0</ele>
        <time>2016-05-03T15:20:34Z</time>
      </trkpt>
      <trkpt lat="42.8669254" lon="-5.3729757">
        <ele>1545.0</ele>
        <time>2016-05-03T15:20:36Z</time>
      </trkpt>
      <trkpt lat="42.8669389" lon="-5.3727478">
        <ele>1545.0</ele>
        <time>2016-05-03T15:20:39Z</time>
      </trkpt>
      <trkpt lat="42.8669029" lon="-5.3725543">
        <ele>1544.0</ele>
        <time>2016-05-03T15:20:42Z</time>
      </trkpt>
      <trkpt lat="42.8667997" lon="-5.3723502">
        <ele>1540.9</ele>
        <time>2016-05-03T15:20:46Z</time>
      </trkpt>
      <trkpt lat="42.8666595" lon="-5.3722062">
        <ele>1530.7</ele>
        <time>2016-05-03T15:20:50Z</time>
      </trkpt>
      <trkpt lat="42.8665643" lon="-5.3719964">
        <ele>1522.2</ele>
        <time>2016-05-03T15:20:53Z</time>
      </trkpt>
      <trkpt lat="42.8664969" lon="-5.3717555">
        <ele>1511.2</ele>
        <time>2016-05-03T15:20:56Z</time>
      </trkpt>
      <trkpt lat="42.8664189" lon="-5.3716043">
        <ele>1501.0</ele>
        <time>2016-05-03T15:20:59Z</time>
      </trkpt>
      <trkpt lat="42.8663246" lon="-5.3714012">
        <ele>1492.4</ele>
        <time>2016-05-03T15:21:02Z</time>
      </trkpt>
      <trkpt lat="42.8662288" lon="-5.3712106">
        <ele>1478.1</ele>
        <time>2016-05-03T15:21:06Z</time>
      </trkpt>
      <trkpt lat="42.8661379" lon="-5.3710087">
        <ele>1469.0</ele>
        <time>2016-05-03T15:21:09Z</time>
      </trkpt>
      <trkpt lat="42.8659999" lon="-5.370934">
        <ele>1456.2</ele>
        <time>2016-05-03T15:21:13Z</time>
      </trkpt>
      <trkpt lat="42.8659019" lon="-5.3709351">
        <ele>1449.8</ele>
        <time>2016-05-03T15:21:15Z</time>
      </trkpt>
      <trkpt lat="42.8657797" lon="-5.3709804">
        <ele>1444.1</ele>
        <time>2016-05-03T15:21:17Z</time>
      </trkpt>
      <trkpt lat="42.8656116" lon="-5.3709442">
        <ele>1434.4</ele>
        <time>2016-05-03T15:21:20Z</time>
      </trkpt>
      <trkpt lat="42.8654507" lon="-5.3708797">
        <ele>1425.2</ele>
        <time>2016-05-03T15:21:23Z</time>
      </trkpt>
      <trkpt lat="42.8653426" lon="-5.3708441">
        <ele>1414.4</ele>
        <time>2016-05-03T15:21:25Z</time>
      </trkpt>
      <trkpt lat="42.8652987" lon="-5.3708288">
        <ele>1414.4</ele>
        <time>2016-05-03T15:21:26Z</time>
      </trkpt>
      <trkpt lat="42.8652669" lon="-5.370784">
        <ele>1414.4</ele>
        <time>2016-05-03T15:21:27Z</time>
      </trkpt>
      <trkpt lat="42.8652434" lon="-5.3707308">
        <ele>1414.4</ele>
        <time>2016-05-03T15:21:28Z</time>
      </trkpt>
      <trkpt lat="42.8652268" lon="-5.3706584">
        <ele>1414.4</ele>
        <time>2016-05-03T15:21:29Z</time>
      </trkpt>
      <trkpt lat="42.8652687" lon="-5.370421">
        <ele>1410.5</ele>
        <time>2016-05-03T15:21:32Z</time>
      </trkpt>
      <trkpt lat="42.8652161" lon="-5.3701857">
        <ele>1409.1</ele>
        <time>2016-05-03T15:21:35Z</time>
      </trkpt>
      <trkpt lat="42.8650713" lon="-5.3701351">
        <ele>1402.1</ele>
        <time>2016-05-03T15:21:39Z</time>
      </trkpt>
      <trkpt lat="42.8649773" lon="-5.370184">
        <ele>1398.5</ele>
        <time>2016-05-03T15:21:41Z</time>
      </trkpt>
      <trkpt lat="42.8648874" lon="-5.3702891">
        <ele>1397.3</ele>
        <time>2016-05-03T15:21:43Z</time>
      </trkpt>
      <trkpt lat="42.8648259" lon="-5.3705462">
        <ele>1395.9</ele>
        <time>2016-05-03T15:21:46Z</time>
      </trkpt>
      <trkpt lat="42.864769" lon="-5.3707605">
        <ele>1394.1</ele>
        <time>2016-05-03T15:21:48Z</time>
      </trkpt>
      <trkpt lat="42.8647028" lon="-5.3709751">
        <ele>1393.2</ele>
        <time>2016-05-03T15:21:50Z</time>
      </trkpt>
      <trkpt lat="42.8646447" lon="-5.3712209">
        <ele>1392.6</ele>
        <time>2016-05-03T15:21:52Z</time>
      </trkpt>
      <trkpt lat="42.8646153" lon="-5.3714756">
        <ele>1392.0</ele>
        <time>2016-05-03T15:21:54Z</time>
      </trkpt>
      <trkpt lat="42.864605" lon="-5.3717257">
        <ele>1391.7</ele>
        <time>2016-05-03T15:21:56Z</time>
      </trkpt>
      <trkpt lat="42.8646336" lon="-5.3719673">
        <ele>1391.3</ele>
        <time>2016-05-03T15:21:58Z</time>
      </trkpt>
      <trkpt lat="42.8646872" lon="-5.3722649">
        <ele>1391.0</ele>
        <time>2016-05-03T15:22:00Z</time>
      </trkpt>
      <trkpt lat="42.8647665" lon="-5.3725693">
        <ele>1390.4</ele>
        <time>2016-05-03T15:22:02Z</time>
      </trkpt>
      <trkpt lat="42.8648069" lon="-5.3728562">
        <ele>1389.7</ele>
        <time>2016-05-03T15:22:04Z</time>
      </trkpt>
      <trkpt lat="42.86475" lon="-5.3731334">
        <ele>1389.3</ele>
        <time>2016-05-03T15:22:06Z</time>
      </trkpt>
      <trkpt lat="42.8646422" lon="-5.373271">
        <ele>1389.0</ele>
        <time>2016-05-03T15:22:08Z</time>
      </trkpt>
      <trkpt lat="42.8645035" lon="-5.373274">
        <ele>1388.5</ele>
        <time>2016-05-03T15:22:10Z</time>
      </trkpt>
      <trkpt lat="42.8644162" lon="-5.373097">
        <ele>1384.1</ele>
        <time>2016-05-03T15:22:13Z</time>
      </trkpt>
      <trkpt lat="42.864516" lon="-5.3728851">
        <ele>1378.5</ele>
        <time>2016-05-03T15:22:16Z</time>
      </trkpt>
      <trkpt lat="42.8646744" lon="-5.372818">
        <ele>1376.2</ele>
        <time>2016-05-03T15:22:18Z</time>
      </trkpt>
      <trkpt lat="42.8648686" lon="-5.372844">
        <ele>1372.9</ele>
        <time>2016-05-03T15:22:20Z</time>
      </trkpt>
      <trkpt lat="42.8650543" lon="-5.3730336">
        <ele>1369.5</ele>
        <time>2016-05-03T15:22:22Z</time>
      </trkpt>
      <trkpt lat="42.8651701" lon="-5.3733367">
        <ele>1368.4</ele>
        <time>2016-05-03T15:22:24Z</time>
      </trkpt>
      <trkpt lat="42.8652103" lon="-5.3736529">
        <ele>1367.4</ele>
        <time>2016-05-03T15:22:26Z</time>
      </trkpt>
      <trkpt lat="42.8652241" lon="-5.373956">
        <ele>1366.8</ele>
        <time>2016-05-03T15:22:28Z</time>
      </trkpt>
      <trkpt lat="42.8652563" lon="-5.3742524">
        <ele>1364.9</ele>
        <time>2016-05-03T15:22:30Z</time>
      </trkpt>
      <trkpt lat="42.8653118" lon="-5.3744682">
        <ele>1363.2</ele>
        <time>2016-05-03T15:22:32Z</time>
      </trkpt>
      <trkpt lat="42.8653765" lon="-5.3747012">
        <ele>1361.6</ele>
        <time>2016-05-03T15:22:34Z</time>
      </trkpt>
      <trkpt lat="42.8654792" lon="-5.3749611">
        <ele>1359.7</ele>
        <time>2016-05-03T15:22:36Z</time>
      </trkpt>
      <trkpt lat="42.8656108" lon="-5.3752023">
        <ele>1358.7</ele>
        <time>2016-05-03T15:22:38Z</time>
      </trkpt>
      <trkpt lat="42.865747" lon="-5.3753948">
        <ele>1357.4</ele>
        <time>2016-05-03T15:22:40Z</time>
      </trkpt>
      <trkpt lat="42.8658776" lon="-5.3756095">
        <ele>1357.1</ele>
        <time>2016-05-03T15:22:42Z</time>
      </trkpt>
      <trkpt lat="42.86603" lon="-5.3758139">
        <ele>1357.0</ele>
        <time>2016-05-03T15:22:44Z</time>
      </trkpt>
      <trkpt lat="42.8662091" lon="-5.3759338">
        <ele>1357.0</ele>
        <time>2016-05-03T15:22:46Z</time>
      </trkpt>
      <trkpt lat="42.8663769" lon="-5.3759252">
        <ele>1356.9</ele>
        <time>2016-05-03T15:22:48Z</time>
      </trkpt>
      <trkpt lat="42.8665123" lon="-5.3757811">
        <ele>1356.9</ele>
        <time>2016-05-03T15:22:50Z</time>
      </trkpt>
      <trkpt lat="42.8665632" lon="-5.3756041">
        <ele>1356.9</ele>
        <time>2016-05-03T15:22:52Z</time>
      </trkpt>
      <trkpt lat="42.8665577" lon="-5.3753816">
        <ele>1356.9</ele>
        <time>2016-05-03T15:22:55Z</time>
      </trkpt>
      <trkpt lat="42.8664057" lon="-5.3752565">
        <ele>1356.9</ele>
        <time>2016-05-03T15:22:59Z</time>
      </trkpt>
      <trkpt lat="42.8662786" lon="-5.375303">
        <ele>1356.9</ele>
        <time>2016-05-03T15:23:01Z</time>
      </trkpt>
      <trkpt lat="42.8661702" lon="-5.3754258">
        <ele>1356.9</ele>
        <time>2016-05-03T15:23:03Z</time>
      </trkpt>
      <trkpt lat="42.8661134" lon="-5.375608">
        <ele>1356.9</ele>
        <time>2016-05-03T15:23:05Z</time>
      </trkpt>
      <trkpt lat="42.8660612" lon="-5.3758224">
        <ele>1356.9</ele>
        <time>2016-05-03T15:23:07Z</time>
      </trkpt>
      <trkpt lat="42.8660575" lon="-5.3761254">
        <ele>1357.8</ele>
        <time>2016-05-03T15:23:09Z</time>
      </trkpt>
      <trkpt lat="42.8661368" lon="-5.3763569">
        <ele>1360.8</ele>
        <time>2016-05-03T15:23:11Z</time>
      </trkpt>
      <trkpt lat="42.8662884" lon="-5.3765497">
        <ele>1363.6</ele>
        <time>2016-05-03T15:23:13Z</time>
      </trkpt>
      <trkpt lat="42.8664805" lon="-5.3766118">
        <ele>1366.2</ele>
        <time>2016-05-03T15:23:15Z</time>
      </trkpt>
      <trkpt lat="42.8666409" lon="-5.3765165">
        <ele>1368.1</ele>
        <time>2016-05-03T15:23:17Z</time>
      </trkpt>
      <trkpt lat="42.8667297" lon="-5.3763414">
        <ele>1368.9</ele>
        <time>2016-05-03T15:23:19Z</time>
      </trkpt>
      <trkpt lat="42.8667652" lon="-5.3761516">
        <ele>1370.1</ele>
        <time>2016-05-03T15:23:21Z</time>
      </trkpt>
      <trkpt lat="42.8667602" lon="-5.3759451">
        <ele>1373.3</ele>
        <time>2016-05-03T15:23:24Z</time>
      </trkpt>
      <trkpt lat="42.8667706" lon="-5.3757259">
        <ele>1376.0</ele>
        <time>2016-05-03T15:23:27Z</time>
      </trkpt>
      <trkpt lat="42.8668374" lon="-5.3755638">
        <ele>1377.4</ele>
        <time>2016-05-03T15:23:29Z</time>
      </trkpt>
      <trkpt lat="42.8669693" lon="-5.3753792">
        <ele>1379.2</ele>
        <time>2016-05-03T15:23:32Z</time>
      </trkpt>
      <trkpt lat="42.8669056" lon="-5.3751721">
        <ele>1385.9</ele>
        <time>2016-05-03T15:23:35Z</time>
      </trkpt>
      <trkpt lat="42.8667544" lon="-5.3751661">
        <ele>1388.6</ele>
        <time>2016-05-03T15:23:38Z</time>
      </trkpt>
      <trkpt lat="42.8666535" lon="-5.3752505">
        <ele>1390.0</ele>
        <time>2016-05-03T15:23:40Z</time>
      </trkpt>
      <trkpt lat="42.8665578" lon="-5.3753849">
        <ele>1392.2</ele>
        <time>2016-05-03T15:23:42Z</time>
      </trkpt>
      <trkpt lat="42.8664835" lon="-5.3756226">
        <ele>1393.7</ele>
        <time>2016-05-03T15:23:44Z</time>
      </trkpt>
      <trkpt lat="42.8664326" lon="-5.3759022">
        <ele>1394.4</ele>
        <time>2016-05-03T15:23:46Z</time>
      </trkpt>
      <trkpt lat="42.8663277" lon="-5.3761013">
        <ele>1394.7</ele>
        <time>2016-05-03T15:23:48Z</time>
      </trkpt>
      <trkpt lat="42.8661496" lon="-5.3761432">
        <ele>1397.7</ele>
        <time>2016-05-03T15:23:51Z</time>
      </trkpt>
      <trkpt lat="42.8660617" lon="-5.3759394">
        <ele>1406.1</ele>
        <time>2016-05-03T15:23:55Z</time>
      </trkpt>
      <trkpt lat="42.8661389" lon="-5.375739">
        <ele>1410.6</ele>
        <time>2016-05-03T15:23:58Z</time>
      </trkpt>
      <trkpt lat="42.8662621" lon="-5.3755971">
        <ele>1412.6</ele>
        <time>2016-05-03T15:24:00Z</time>
      </trkpt>
      <trkpt lat="42.8663733" lon="-5.3754323">
        <ele>1414.3</ele>
        <time>2016-05-03T15:24:02Z</time>
      </trkpt>
      <trkpt lat="42.8665041" lon="-5.3752858">
        <ele>1415.2</ele>
        <time>2016-05-03T15:24:04Z</time>
      </trkpt>
      <trkpt lat="42.866624" lon="-5.3751589">
        <ele>1416.3</ele>
        <time>2016-05-03T15:24:06Z</time>
      </trkpt>
      <trkpt lat="42.8667085" lon="-5.3750073">
        <ele>1420.2</ele>
        <time>2016-05-03T15:24:08Z</time>
      </trkpt>
      <trkpt lat="42.8668105" lon="-5.3748212">
        <ele>1421.9</ele>
        <time>2016-05-03T15:24:10Z</time>
      </trkpt>
      <trkpt lat="42.8669469" lon="-5.3746852">
        <ele>1422.4</ele>
        <time>2016-05-03T15:24:12Z</time>
      </trkpt>
      <trkpt lat="42.8670377" lon="-5.3745316">
        <ele>1422.8</ele>
        <time>2016-05-03T15:24:14Z</time>
      </trkpt>
      <trkpt lat="42.8671063" lon="-5.3743425">
        <ele>1423.5</ele>
        <time>2016-05-03T15:24:16Z</time>
      </trkpt>
      <trkpt lat="42.8671845" lon="-5.3741866">
        <ele>1423.8</ele>
        <time>2016-05-03T15:24:18Z</time>
      </trkpt>
      <trkpt lat="42.8672116" lon="-5.3740029">
        <ele>1424.2</ele>
        <time>2016-05-03T15:24:20Z</time>
      </trkpt>
      <trkpt lat="42.8671579" lon="-5.3737612">
        <ele>1424.5</ele>
        <time>2016-05-03T15:24:23Z</time>
      </trkpt>
      <trkpt lat="42.8670856" lon="-5.3735323">
        <ele>1424.6</ele>
        <time>2016-05-03T15:24:28Z</time>
      </trkpt>
      <trkpt lat="42.8669891" lon="-5.3733068">
        <ele>1424.6</ele>
        <time>2016-05-03T15:24:31Z</time>
      </trkpt>
      <trkpt lat="42.8668947" lon="-5.3731169">
        <ele>1424.6</ele>
        <time>2016-05-03T15:24:34Z</time>
      </trkpt>
      <trkpt lat="42.8667994" lon="-5.3729753">
        <ele>1424.6</ele>
        <time>2016-05-03T15:24:37Z</time>
      </trkpt>
      <trkpt lat="42.8666313" lon="-5.3729061">
        <ele>1424.6</ele>
        <time>2016-05-03T15:24:40Z</time>
      </trkpt>
      <trkpt lat="42.8665205" lon="-5.3729584">
        <ele>1424.1</ele>
        <time>2016-05-03T15:24:42Z</time>
      </trkpt>
      <trkpt lat="42.8664092" lon="-5.3730388">
        <ele>1423.9</ele>
        <time>2016-05-03T15:24:44Z</time>
      </trkpt>
      <trkpt lat="42.8663113" lon="-5.3731742">
        <ele>1423.4</ele>
        <time>2016-05-03T15:24:46Z</time>
      </trkpt>
      <trkpt lat="42.8662145" lon="-5.3733458">
        <ele>1422.5</ele>
        <time>2016-05-03T15:24:48Z</time>
      </trkpt>
      <trkpt lat="42.8661094" lon="-5.3734862">
        <ele>1421.9</ele>
        <time>2016-05-03T15:24:50Z</time>
      </trkpt>
      <trkpt lat="42.8660188" lon="-5.3736297">
        <ele>1421.4</ele>
        <time>2016-05-03T15:24:52Z</time>
      </trkpt>
      <trkpt lat="42.8659334" lon="-5.3737983">
        <ele>1420.9</ele>
        <time>2016-05-03T15:24:54Z</time>
      </trkpt>
      <trkpt lat="42.8658198" lon="-5.3739502">
        <ele>1420.6</ele>
        <time>2016-05-03T15:24:56Z</time>
      </trkpt>
      <trkpt lat="42.8656422" lon="-5.3740038">
        <ele>1417.0</ele>
        <time>2016-05-03T15:24:59Z</time>
      </trkpt>
      <trkpt lat="42.8655418" lon="-5.3739694">
        <ele>1414.1</ele>
        <time>2016-05-03T15:25:01Z</time>
      </trkpt>
      <trkpt lat="42.8654899" lon="-5.3739258">
        <ele>1414.1</ele>
        <time>2016-05-03T15:25:02Z</time>
      </trkpt>
      <trkpt lat="42.865428" lon="-5.373862">
        <ele>1414.1</ele>
        <time>2016-05-03T15:25:03Z</time>
      </trkpt>
      <trkpt lat="42.8653758" lon="-5.3737921">
        <ele>1414.1</ele>
        <time>2016-05-03T15:25:04Z</time>
      </trkpt>
      <trkpt lat="42.8653411" lon="-5.3737237">
        <ele>1414.1</ele>
        <time>2016-05-03T15:25:05Z</time>
      </trkpt>
      <trkpt lat="42.8652519" lon="-5.3735442">
        <ele>1413.8</ele>
        <time>2016-05-03T15:25:08Z</time>
      </trkpt>
      <trkpt lat="42.8651498" lon="-5.3734075">
        <ele>1413.7</ele>
        <time>2016-05-03T15:25:10Z</time>
      </trkpt>
      <trkpt lat="42.8649801" lon="-5.3732686">
        <ele>1413.7</ele>
        <time>2016-05-03T15:25:13Z</time>
      </trkpt>
      <trkpt lat="42.8648337" lon="-5.3731282">
        <ele>1413.7</ele>
        <time>2016-05-03T15:25:16Z</time>
      </trkpt>
      <trkpt lat="42.8647142" lon="-5.3730215">
        <ele>1413.7</ele>
        <time>2016-05-03T15:25:18Z</time>
      </trkpt>
      <trkpt lat="42.8646193" lon="-5.3728827">
        <ele>1413.7</ele>
        <time>2016-05-03T15:25:20Z</time>
      </trkpt>
      <trkpt lat="42.8645596" lon="-5.37271">
        <ele>1413.7</ele>
        <time>2016-05-03T15:25:22Z</time>
      </trkpt>
      <trkpt lat="42.8644866" lon="-5.3725237">
        <ele>1413.7</ele>
        <time>2016-05-03T15:25:24Z</time>
      </trkpt>
      <trkpt lat="42.8644347" lon="-5.3723233">
        <ele>1413.7</ele>
        <time>2016-05-03T15:25:26Z</time>
      </trkpt>
      <trkpt lat="42.8643655" lon="-5.3721542">
        <ele>1413.7</ele>
        <time>2016-05-03T15:25:28Z</time>
      </trkpt>
      <trkpt lat="42.8642954" lon="-5.3719967">
        <ele>1414.6</ele>
        <time>2016-05-03T15:25:30Z</time>
      </trkpt>
      <trkpt lat="42.8642116" lon="-5.3718337">
        <ele>1415.6</ele>
        <time>2016-05-03T15:25:32Z</time>
      </trkpt>
      <trkpt lat="42.8641196" lon="-5.3716058">
        <ele>1418.3</ele>
        <time>2016-05-03T15:25:35Z</time>
      </trkpt>
      <trkpt lat="42.8640674" lon="-5.3714307">
        <ele>1419.3</ele>
        <time>2016-05-03T15:25:37Z</time>
      </trkpt>
      <trkpt lat="42.8639907" lon="-5.3712064">
        <ele>1420.5</ele>
        <time>2016-05-03T15:25:40Z</time>
      </trkpt>
      <trkpt lat="42.8639586" lon="-5.3710247">
        <ele>1421.4</ele>
        <time>2016-05-03T15:25:42Z</time>
      </trkpt>
      <trkpt lat="42.8639427" lon="-5.3708215">
        <ele>1424.1</ele>
        <time>2016-05-03T15:25:44Z</time>
      </trkpt>
      <trkpt lat="42.8639232" lon="-5.3706141">
        <ele>1425.9</ele>
        <time>2016-05-03T15:25:46Z</time>
      </trkpt>
      <trkpt lat="42.8639058" lon="-5.370348">
        <ele>1427.0</ele>
        <time>2016-05-03T15:25:49Z</time>
      </trkpt>
      <trkpt lat="42.8639088" lon="-5.3700767">
        <ele>1431.3</ele>
        <time>2016-05-03T15:25:52Z</time>
      </trkpt>
      <trkpt lat="42.8638812" lon="-5.3698479">
        <ele>1433.6</ele>
        <time>2016-05-03T15:25:55Z</time>
      </trkpt>
      <trkpt lat="42.8637575" lon="-5.3697384">
        <ele>1434.6</ele>
        <time>2016-05-03T15:25:58Z</time>
      </trkpt>
      <trkpt lat="42.863628" lon="-5.3696756">
        <ele>1436.7</ele>
        <time>2016-05-03T15:26:01Z</time>
      </trkpt>
      <trkpt lat="42.8635565" lon="-5.3694723">
        <ele>1439.4</ele>
        <time>2016-05-03T15:26:04Z</time>
      </trkpt>
      <trkpt lat="42.8635518" lon="-5.3692138">
        <ele>1440.2</ele>
        <time>2016-05-03T15:26:07Z</time>
      </trkpt>
      <trkpt lat="42.8635816" lon="-5.3690122">
        <ele>1441.1</ele>
        <time>2016-05-03T15:26:10Z</time>
      </trkpt>
      <trkpt lat="42.8636309" lon="-5.3688229">
        <ele>1442.3</ele>
        <time>2016-05-03T15:26:12Z</time>
      </trkpt>
      <trkpt lat="42.8636971" lon="-5.3686602">
        <ele>1443.4</ele>
        <time>2016-05-03T15:26:14Z</time>
      </trkpt>
      <trkpt lat="42.8637782" lon="-5.3684805">
        <ele>1444.5</ele>
        <time>2016-05-03T15:26:16Z</time>
      </trkpt>
      <trkpt lat="42.863858" lon="-5.3683001">
        <ele>1446.2</ele>
        <time>2016-05-03T15:26:18Z</time>
      </trkpt>
      <trkpt lat="42.8639527" lon="-5.368104">
        <ele>1447.0</ele>
        <time>2016-05-03T15:26:20Z</time>
      </trkpt>
      <trkpt lat="42.8640414" lon="-5.3678619">
        <ele>1448.4</ele>
        <time>2016-05-03T15:26:22Z</time>
      </trkpt>
      <trkpt lat="42.8641441" lon="-5.3676653">
        <ele>1448.7</ele>
        <time>2016-05-03T15:26:24Z</time>
      </trkpt>
      <trkpt lat="42.8642385" lon="-5.3675192">
        <ele>1448.8</ele>
        <time>2016-05-03T15:26:26Z</time>
      </trkpt>
      <trkpt lat="42.8643029" lon="-5.367354">
        <ele>1448.8</ele>
        <time>2016-05-03T15:26:28Z</time>
      </trkpt>
      <trkpt lat="42.8643591" lon="-5.3671513">
        <ele>1448.8</ele>
        <time>2016-05-03T15:26:30Z</time>
      </trkpt>
      <trkpt lat="42.8643813" lon="-5.3669469">
        <ele>1448.8</ele>
        <time>2016-05-03T15:26:33Z</time>
      </trkpt>
      <trkpt lat="42.8644033" lon="-5.3666915">
        <ele>1448.8</ele>
        <time>2016-05-03T15:26:36Z</time>
      </trkpt>
      <trkpt lat="42.8644152" lon="-5.3664361">
        <ele>1448.8</ele>
        <time>2016-05-03T15:26:39Z</time>
      </trkpt>
      <trkpt lat="42.864436" lon="-5.3662546">
        <ele>1448.8</ele>
        <time>2016-05-03T15:26:41Z</time>
      </trkpt>
      <trkpt lat="42.8644708" lon="-5.3660678">
        <ele>1448.8</ele>
        <time>2016-05-03T15:26:43Z</time>
      </trkpt>
      <trkpt lat="42.8645404" lon="-5.3659088">
        <ele>1448.8</ele>
        <time>2016-05-03T15:26:45Z</time>
      </trkpt>
      <trkpt lat="42.8646588" lon="-5.3657811">
        <ele>1448.8</ele>
        <time>2016-05-03T15:26:47Z</time>
      </trkpt>
      <trkpt lat="42.864789" lon="-5.3656811">
        <ele>1448.8</ele>
        <time>2016-05-03T15:26:49Z</time>
      </trkpt>
      <trkpt lat="42.8649084" lon="-5.365484">
        <ele>1448.0</ele>
        <time>2016-05-03T15:26:52Z</time>
      </trkpt>
      <trkpt lat="42.8649612" lon="-5.3652661">
        <ele>1444.9</ele>
        <time>2016-05-03T15:26:55Z</time>
      </trkpt>
      <trkpt lat="42.8650377" lon="-5.3650354">
        <ele>1442.9</ele>
        <time>2016-05-03T15:26:58Z</time>
      </trkpt>
      <trkpt lat="42.8650773" lon="-5.3648516">
        <ele>1442.1</ele>
        <time>2016-05-03T15:27:00Z</time>
      </trkpt>
      <trkpt lat="42.8651149" lon="-5.3646402">
        <ele>1441.5</ele>
        <time>2016-05-03T15:27:02Z</time>
      </trkpt>
      <trkpt lat="42.8651674" lon="-5.3644295">
        <ele>1440.8</ele>
        <time>2016-05-03T15:27:04Z</time>
      </trkpt>
      <trkpt lat="42.8652365" lon="-5.364262">
        <ele>1438.5</ele>
        <time>2016-05-03T15:27:06Z</time>
      </trkpt>
      <trkpt lat="42.8653186" lon="-5.3641016">
        <ele>1434.4</ele>
        <time>2016-05-03T15:27:08Z</time>
      </trkpt>
      <trkpt lat="42.8654554" lon="-5.363977">
        <ele>1431.7</ele>
        <time>2016-05-03T15:27:10Z</time>
      </trkpt>
      <trkpt lat="42.865579" lon="-5.3638816">
        <ele>1428.8</ele>
        <time>2016-05-03T15:27:12Z</time>
      </trkpt>
      <trkpt lat="42.86566" lon="-5.3636847">
        <ele>1421.9</ele>
        <time>2016-05-03T15:27:15Z</time>
      </trkpt>
      <trkpt lat="42.8656011" lon="-5.3634409">
        <ele>1417.6</ele>
        <time>2016-05-03T15:27:18Z</time>
      </trkpt>
      <trkpt lat="42.8654821" lon="-5.3633224">
        <ele>1414.2</ele>
        <time>2016-05-03T15:27:21Z</time>
      </trkpt>
      <trkpt lat="42.8653413" lon="-5.3632412">
        <ele>1412.7</ele>
        <time>2016-05-03T15:27:24Z</time>
      </trkpt>
      <trkpt lat="42.8652334" lon="-5.3632562">
        <ele>1412.5</ele>
        <time>2016-05-03T15:27:26Z</time>
      </trkpt>
      <trkpt lat="42.8651191" lon="-5.3632875">
        <ele>1412.4</ele>
        <time>2016-05-03T15:27:28Z</time>
      </trkpt>
      <trkpt lat="42.8649883" lon="-5.3633434">
        <ele>1412.3</ele>
        <time>2016-05-03T15:27:30Z</time>
      </trkpt>
      <trkpt lat="42.8649209" lon="-5.3633505">
        <ele>1412.3</ele>
        <time>2016-05-03T15:27:31Z</time>
      </trkpt>
      <trkpt lat="42.8648493" lon="-5.3633571">
        <ele>1412.3</ele>
        <time>2016-05-03T15:27:32Z</time>
      </trkpt>
      <trkpt lat="42.8647781" lon="-5.3633619">
        <ele>1412.3</ele>
        <time>2016-05-03T15:27:33Z</time>
      </trkpt>
      <trkpt lat="42.8647034" lon="-5.3633727">
        <ele>1412.3</ele>
        <time>2016-05-03T15:27:34Z</time>
      </trkpt>
      <trkpt lat="42.8645768" lon="-5.363406">
        <ele>1412.2</ele>
        <time>2016-05-03T15:27:36Z</time>
      </trkpt>
      <trkpt lat="42.8644518" lon="-5.3634038">
        <ele>1411.8</ele>
        <time>2016-05-03T15:27:38Z</time>
      </trkpt>
      <trkpt lat="42.8643996" lon="-5.3633791">
        <ele>1411.8</ele>
        <time>2016-05-03T15:27:39Z</time>
      </trkpt>
      <trkpt lat="42.864337" lon="-5.3633563">
        <ele>1411.8</ele>
        <time>2016-05-03T15:27:40Z</time>
      </trkpt>
      <trkpt lat="42.8642811" lon="-5.3633342">
        <ele>1411.8</ele>
        <time>2016-05-03T15:27:41Z</time>
      </trkpt>
      <trkpt lat="42.8642317" lon="-5.363305">
        <ele>1411.8</ele>
        <time>2016-05-03T15:27:42Z</time>
      </trkpt>
      <trkpt lat="42.8640479" lon="-5.3631942">
        <ele>1411.3</ele>
        <time>2016-05-03T15:27:45Z</time>
      </trkpt>
      <trkpt lat="42.863928" lon="-5.3630866">
        <ele>1411.0</ele>
        <time>2016-05-03T15:27:47Z</time>
      </trkpt>
      <trkpt lat="42.8638353" lon="-5.3629465">
        <ele>1410.5</ele>
        <time>2016-05-03T15:27:49Z</time>
      </trkpt>
      <trkpt lat="42.863769" lon="-5.3626833">
        <ele>1409.7</ele>
        <time>2016-05-03T15:27:52Z</time>
      </trkpt>
      <trkpt lat="42.8637836" lon="-5.3624865">
        <ele>1409.2</ele>
        <time>2016-05-03T15:27:54Z</time>
      </trkpt>
      <trkpt lat="42.8638411" lon="-5.362288">
        <ele>1408.7</ele>
        <time>2016-05-03T15:27:56Z</time>
      </trkpt>
      <trkpt lat="42.8638996" lon="-5.3621073">
        <ele>1408.3</ele>
        <time>2016-05-03T15:27:58Z</time>
      </trkpt>
      <trkpt lat="42.8639832" lon="-5.361931">
        <ele>1408.0</ele>
        <time>2016-05-03T15:28:00Z</time>
      </trkpt>
      <trkpt lat="42.8640801" lon="-5.3617245">
        <ele>1407.4</ele>
        <time>2016-05-03T15:28:02Z</time>
      </trkpt>
      <trkpt lat="42.8641871" lon="-5.3615336">
        <ele>1407.0</ele>
        <time>2016-05-03T15:28:04Z</time>
      </trkpt>
      <trkpt lat="42.8643143" lon="-5.3613504">
        <ele>1405.6</ele>
        <time>2016-05-03T15:28:06Z</time>
      </trkpt>
      <trkpt lat="42.8644614" lon="-5.3611384">
        <ele>1404.5</ele>
        <time>2016-05-03T15:28:08Z</time>
      </trkpt>
      <trkpt lat="42.8646095" lon="-5.3609703">
        <ele>1402.9</ele>
        <time>2016-05-03T15:28:10Z</time>
      </trkpt>
      <trkpt lat="42.8647623" lon="-5.3608308">
        <ele>1399.7</ele>
        <time>2016-05-03T15:28:12Z</time>
      </trkpt>
      <trkpt lat="42.8649267" lon="-5.3607435">
        <ele>1396.3</ele>
        <time>2016-05-03T15:28:14Z</time>
      </trkpt>
      <trkpt lat="42.8650161" lon="-5.3607167">
        <ele>1386.0</ele>
        <time>2016-05-03T15:28:15Z</time>
      </trkpt>
      <trkpt lat="42.8650995" lon="-5.3606836">
        <ele>1386.0</ele>
        <time>2016-05-03T15:28:16Z</time>
      </trkpt>
      <trkpt lat="42.8651534" lon="-5.360626">
        <ele>1386.0</ele>
        <time>2016-05-03T15:28:17Z</time>
      </trkpt>
      <trkpt lat="42.8652085" lon="-5.3605713">
        <ele>1386.0</ele>
        <time>2016-05-03T15:28:18Z</time>
      </trkpt>
      <trkpt lat="42.8652545" lon="-5.3605036">
        <ele>1386.0</ele>
        <time>2016-05-03T15:28:19Z</time>
      </trkpt>
      <trkpt lat="42.8653148" lon="-5.3603167">
        <ele>1382.4</ele>
        <time>2016-05-03T15:28:21Z</time>
      </trkpt>
      <trkpt lat="42.8652963" lon="-5.3600811">
        <ele>1376.6</ele>
        <time>2016-05-03T15:28:24Z</time>
      </trkpt>
      <trkpt lat="42.865205" lon="-5.3598877">
        <ele>1373.6</ele>
        <time>2016-05-03T15:28:27Z</time>
      </trkpt>
      <trkpt lat="42.8652293" lon="-5.3596507">
        <ele>1371.4</ele>
        <time>2016-05-03T15:28:30Z</time>
      </trkpt>
      <trkpt lat="42.8653457" lon="-5.3594487">
        <ele>1367.8</ele>
        <time>2016-05-03T15:28:33Z</time>
      </trkpt>
      <trkpt lat="42.8655093" lon="-5.3592482">
        <ele>1364.0</ele>
        <time>2016-05-03T15:28:36Z</time>
      </trkpt>
      <trkpt lat="42.865668" lon="-5.3591653">
        <ele>1360.3</ele>
        <time>2016-05-03T15:28:38Z</time>
      </trkpt>
      <trkpt lat="42.8658031" lon="-5.3590826">
        <ele>1356.1</ele>
        <time>2016-05-03T15:28:40Z</time>
      </trkpt>
      <trkpt lat="42.8658617" lon="-5.358894">
        <ele>1355.3</ele>
        <time>2016-05-03T15:28:42Z</time>
      </trkpt>
      <trkpt lat="42.8658349" lon="-5.3587084">
        <ele>1352.6</ele>
        <time>2016-05-03T15:28:44Z</time>
      </trkpt>
      <trkpt lat="42.8656853" lon="-5.3586119">
        <ele>1351.2</ele>
        <time>2016-05-03T15:28:47Z</time>
      </trkpt>
      <trkpt lat="42.8655686" lon="-5.3586822">
        <ele>1350.2</ele>
        <time>2016-05-03T15:28:49Z</time>
      </trkpt>
      <trkpt lat="42.865454" lon="-5.3588172">
        <ele>1348.1</ele>
        <time>2016-05-03T15:28:51Z</time>
      </trkpt>
      <trkpt lat="42.8653623" lon="-5.3590226">
        <ele>1347.0</ele>
        <time>2016-05-03T15:28:53Z</time>
      </trkpt>
      <trkpt lat="42.8653106" lon="-5.3592386">
        <ele>1345.9</ele>
        <time>2016-05-03T15:28:55Z</time>
      </trkpt>
      <trkpt lat="42.8653017" lon="-5.3595014">
        <ele>1344.6</ele>
        <time>2016-05-03T15:28:57Z</time>
      </trkpt>
      <trkpt lat="42.8652892" lon="-5.3597541">
        <ele>1342.9</ele>
        <time>2016-05-03T15:28:59Z</time>
      </trkpt>
      <trkpt lat="42.8652499" lon="-5.3599604">
        <ele>1340.9</ele>
        <time>2016-05-03T15:29:01Z</time>
      </trkpt>
      <trkpt lat="42.8652282" lon="-5.3601865">
        <ele>1339.5</ele>
        <time>2016-05-03T15:29:03Z</time>
      </trkpt>
      <trkpt lat="42.8652113" lon="-5.3604154">
        <ele>1338.3</ele>
        <time>2016-05-03T15:29:05Z</time>
      </trkpt>
      <trkpt lat="42.8651915" lon="-5.3606406">
        <ele>1336.3</ele>
        <time>2016-05-03T15:29:07Z</time>
      </trkpt>
      <trkpt lat="42.8651555" lon="-5.3608732">
        <ele>1335.0</ele>
        <time>2016-05-03T15:29:09Z</time>
      </trkpt>
      <trkpt lat="42.8651185" lon="-5.3611279">
        <ele>1333.7</ele>
        <time>2016-05-03T15:29:11Z</time>
      </trkpt>
      <trkpt lat="42.865078" lon="-5.361332">
        <ele>1331.6</ele>
        <time>2016-05-03T15:29:13Z</time>
      </trkpt>
      <trkpt lat="42.865012" lon="-5.3615625">
        <ele>1330.7</ele>
        <time>2016-05-03T15:29:15Z</time>
      </trkpt>
      <trkpt lat="42.8649567" lon="-5.3618107">
        <ele>1330.0</ele>
        <time>2016-05-03T15:29:17Z</time>
      </trkpt>
      <trkpt lat="42.8649111" lon="-5.3620424">
        <ele>1328.2</ele>
        <time>2016-05-03T15:29:19Z</time>
      </trkpt>
      <trkpt lat="42.8648942" lon="-5.3622777">
        <ele>1325.0</ele>
        <time>2016-05-03T15:29:21Z</time>
      </trkpt>
      <trkpt lat="42.8648975" lon="-5.3625013">
        <ele>1321.7</ele>
        <time>2016-05-03T15:29:23Z</time>
      </trkpt>
      <trkpt lat="42.8648173" lon="-5.362726">
        <ele>1316.9</ele>
        <time>2016-05-03T15:29:26Z</time>
      </trkpt>
      <trkpt lat="42.8646674" lon="-5.3628102">
        <ele>1311.6</ele>
        <time>2016-05-03T15:29:29Z</time>
      </trkpt>
      <trkpt lat="42.8645205" lon="-5.3627909">
        <ele>1307.5</ele>
        <time>2016-05-03T15:29:32Z</time>
      </trkpt>
      <trkpt lat="42.8643795" lon="-5.3628301">
        <ele>1304.2</ele>
        <time>2016-05-03T15:29:34Z</time>
      </trkpt>
      <trkpt lat="42.8642748" lon="-5.3629118">
        <ele>1300.9</ele>
        <time>2016-05-03T15:29:36Z</time>
      </trkpt>
      <trkpt lat="42.8641884" lon="-5.3630581">
        <ele>1297.4</ele>
        <time>2016-05-03T15:29:38Z</time>
      </trkpt>
      <trkpt lat="42.864151" lon="-5.3632514">
        <ele>1293.4</ele>
        <time>2016-05-03T15:29:40Z</time>
      </trkpt>
      <trkpt lat="42.8642076" lon="-5.3634806">
        <ele>1290.7</ele>
        <time>2016-05-03T15:29:42Z</time>
      </trkpt>
      <trkpt lat="42.8643453" lon="-5.363644">
        <ele>1289.9</ele>
        <time>2016-05-03T15:29:44Z</time>
      </trkpt>
      <trkpt lat="42.8645278" lon="-5.3637209">
        <ele>1289.4</ele>
        <time>2016-05-03T15:29:46Z</time>
      </trkpt>
      <trkpt lat="42.8647231" lon="-5.3636386">
        <ele>1289.1</ele>
        <time>2016-05-03T15:29:48Z</time>
      </trkpt>
      <trkpt lat="42.864855" lon="-5.3635041">
        <ele>1288.8</ele>
        <time>2016-05-03T15:29:50Z</time>
      </trkpt>
      <trkpt lat="42.864801" lon="-5.3632352">
        <ele>1288.2</ele>
        <time>2016-05-03T15:29:52Z</time>
      </trkpt>
      <trkpt lat="42.8647382" lon="-5.36301">
        <ele>1287.6</ele>
        <time>2016-05-03T15:29:55Z</time>
      </trkpt>
      <trkpt lat="42.8647197" lon="-5.3627646">
        <ele>1286.7</ele>
        <time>2016-05-03T15:29:58Z</time>
      </trkpt>
      <trkpt lat="42.8646681" lon="-5.3625474">
        <ele>1285.9</ele>
        <time>2016-05-03T15:30:01Z</time>
      </trkpt>
      <trkpt lat="42.8645577" lon="-5.3623643">
        <ele>1285.2</ele>
        <time>2016-05-03T15:30:04Z</time>
      </trkpt>
      <trkpt lat="42.8643906" lon="-5.3623491">
        <ele>1284.2</ele>
        <time>2016-05-03T15:30:07Z</time>
      </trkpt>
      <trkpt lat="42.8642789" lon="-5.3624527">
        <ele>1283.8</ele>
        <time>2016-05-03T15:30:09Z</time>
      </trkpt>
      <trkpt lat="42.8642122" lon="-5.362622">
        <ele>1283.3</ele>
        <time>2016-05-03T15:30:11Z</time>
      </trkpt>
      <trkpt lat="42.8641671" lon="-5.3628287">
        <ele>1282.1</ele>
        <time>2016-05-03T15:30:13Z</time>
      </trkpt>
      <trkpt lat="42.8641226" lon="-5.363069">
        <ele>1281.7</ele>
        <time>2016-05-03T15:30:15Z</time>
      </trkpt>
      <trkpt lat="42.8640889" lon="-5.3633191">
        <ele>1281.3</ele>
        <time>2016-05-03T15:30:17Z</time>
      </trkpt>
      <trkpt lat="42.8640716" lon="-5.3635792">
        <ele>1277.9</ele>
        <time>2016-05-03T15:30:19Z</time>
      </trkpt>
      <trkpt lat="42.8640809" lon="-5.3638384">
        <ele>1276.3</ele>
        <time>2016-05-03T15:30:21Z</time>
      </trkpt>
      <trkpt lat="42.8640878" lon="-5.3641106">
        <ele>1275.2</ele>
        <time>2016-05-03T15:30:23Z</time>
      </trkpt>
      <trkpt lat="42.8641" lon="-5.3643889">
        <ele>1274.5</ele>
        <time>2016-05-03T15:30:25Z</time>
      </trkpt>
      <trkpt lat="42.8640915" lon="-5.3646488">
        <ele>1274.1</ele>
        <time>2016-05-03T15:30:27Z</time>
      </trkpt>
      <trkpt lat="42.864002" lon="-5.3648465">
        <ele>1273.4</ele>
        <time>2016-05-03T15:30:29Z</time>
      </trkpt>
      <trkpt lat="42.8638665" lon="-5.3649541">
        <ele>1272.3</ele>
        <time>2016-05-03T15:30:31Z</time>
      </trkpt>
      <trkpt lat="42.8637583" lon="-5.3650714">
        <ele>1271.5</ele>
        <time>2016-05-03T15:30:33Z</time>
      </trkpt>
      <trkpt lat="42.8636237" lon="-5.3652255">
        <ele>1270.6</ele>
        <time>2016-05-03T15:30:36Z</time>
      </trkpt>
      <trkpt lat="42.8634385" lon="-5.365287">
        <ele>1270.1</ele>
        <time>2016-05-03T15:30:39Z</time>
      </trkpt>
      <trkpt lat="42.8633142" lon="-5.3653048">
        <ele>1269.3</ele>
        <time>2016-05-03T15:30:42Z</time>
      </trkpt>
      <trkpt lat="42.8631927" lon="-5.3652235">
        <ele>1267.9</ele>
        <time>2016-05-03T15:30:46Z</time>
      </trkpt>
      <trkpt lat="42.8630183" lon="-5.3653228">
        <ele>1266.1</ele>
        <time>2016-05-03T15:30:50Z</time>
      </trkpt>
      <trkpt lat="42.8629357" lon="-5.3655175">
        <ele>1265.4</ele>
        <time>2016-05-03T15:30:52Z</time>
      </trkpt>
      <trkpt lat="42.8629408" lon="-5.3657645">
        <ele>1264.7</ele>
        <time>2016-05-03T15:30:54Z</time>
      </trkpt>
      <trkpt lat="42.8629625" lon="-5.3660103">
        <ele>1263.7</ele>
        <time>2016-05-03T15:30:56Z</time>
      </trkpt>
      <trkpt lat="42.8628913" lon="-5.3662123">
        <ele>1262.3</ele>
        <time>2016-05-03T15:30:58Z</time>
      </trkpt>
      <trkpt lat="42.8627182" lon="-5.3661769">
        <ele>1261.5</ele>
        <time>2016-05-03T15:31:01Z</time>
      </trkpt>
      <trkpt lat="42.8627223" lon="-5.3659434">
        <ele>1260.8</ele>
        <time>2016-05-03T15:31:05Z</time>
      </trkpt>
      <trkpt lat="42.8627149" lon="-5.3657596">
        <ele>1260.5</ele>
        <time>2016-05-03T15:31:08Z</time>
      </trkpt>
      <trkpt lat="42.8625912" lon="-5.3655883">
        <ele>1259.8</ele>
        <time>2016-05-03T15:31:12Z</time>
      </trkpt>
      <trkpt lat="42.8624901" lon="-5.365465">
        <ele>1259.4</ele>
        <time>2016-05-03T15:31:15Z</time>
      </trkpt>
      <trkpt lat="42.8623762" lon="-5.3653133">
        <ele>1258.6</ele>
        <time>2016-05-03T15:31:18Z</time>
      </trkpt>
      <trkpt lat="42.8622683" lon="-5.3651814">
        <ele>1257.7</ele>
        <time>2016-05-03T15:31:21Z</time>
      </trkpt>
      <trkpt lat="42.8621697" lon="-5.3650126">
        <ele>1257.0</ele>
        <time>2016-05-03T15:31:24Z</time>
      </trkpt>
      <trkpt lat="42.8620752" lon="-5.3648528">
        <ele>1256.5</ele>
        <time>2016-05-03T15:31:27Z</time>
      </trkpt>
      <trkpt lat="42.8619778" lon="-5.3646965">
        <ele>1252.5</ele>
        <time>2016-05-03T15:31:30Z</time>
      </trkpt>
      <trkpt lat="42.8618892" lon="-5.3645387">
        <ele>1247.3</ele>
        <time>2016-05-03T15:31:33Z</time>
      </trkpt>
      <trkpt lat="42.8617966" lon="-5.3643698">
        <ele>1245.7</ele>
        <time>2016-05-03T15:31:36Z</time>
      </trkpt>
      <trkpt lat="42.8617359" lon="-5.3641557">
        <ele>1240.4</ele>
        <time>2016-05-03T15:31:40Z</time>
      </trkpt>
      <trkpt lat="42.8616585" lon="-5.3640048">
        <ele>1237.5</ele>
        <time>2016-05-03T15:31:43Z</time>
      </trkpt>
      <trkpt lat="42.861582" lon="-5.3638344">
        <ele>1233.2</ele>
        <time>2016-05-03T15:31:46Z</time>
      </trkpt>
      <trkpt lat="42.8614748" lon="-5.3636655">
        <ele>1227.1</ele>
        <time>2016-05-03T15:31:49Z</time>
      </trkpt>
      <trkpt lat="42.861359" lon="-5.3635025">
        <ele>1222.5</ele>
        <time>2016-05-03T15:31:52Z</time>
      </trkpt>
      <trkpt lat="42.8612317" lon="-5.3633519">
        <ele>1213.9</ele>
        <time>2016-05-03T15:31:56Z</time>
      </trkpt>
      <trkpt lat="42.8611044" lon="-5.3631786">
        <ele>1207.1</ele>
        <time>2016-05-03T15:31:59Z</time>
      </trkpt>
      <trkpt lat="42.8610258" lon="-5.3629608">
        <ele>1200.8</ele>
        <time>2016-05-03T15:32:03Z</time>
      </trkpt>
      <trkpt lat="42.860871" lon="-5.3628736">
        <ele>1198.1</ele>
        <time>2016-05-03T15:32:06Z</time>
      </trkpt>
      <trkpt lat="42.8607227" lon="-5.3627458">
        <ele>1196.2</ele>
        <time>2016-05-03T15:32:09Z</time>
      </trkpt>
      <trkpt lat="42.8605755" lon="-5.3627473">
        <ele>1193.6</ele>
        <time>2016-05-03T15:32:12Z</time>
      </trkpt>
      <trkpt lat="42.8604351" lon="-5.3628484">
        <ele>1191.2</ele>
        <time>2016-05-03T15:32:14Z</time>
      </trkpt>
      <trkpt lat="42.8603767" lon="-5.3629428">
        <ele>1189.9</ele>
        <time>2016-05-03T15:32:15Z</time>
      </trkpt>
      <trkpt lat="42.8602891" lon="-5.3631541">
        <ele>1186.6</ele>
        <time>2016-05-03T15:32:17Z</time>
      </trkpt>
      <trkpt lat="42.8601725" lon="-5.3632897">
        <ele>1183.7</ele>
        <time>2016-05-03T15:32:19Z</time>
      </trkpt>
      <trkpt lat="42.8600621" lon="-5.3631835">
        <ele>1178.6</ele>
        <time>2016-05-03T15:32:22Z</time>
      </trkpt>
      <trkpt lat="42.8600861" lon="-5.3629179">
        <ele>1175.9</ele>
        <time>2016-05-03T15:32:25Z</time>
      </trkpt>
      <trkpt lat="42.8600824" lon="-5.3626701">
        <ele>1173.6</ele>
        <time>2016-05-03T15:32:28Z</time>
      </trkpt>
      <trkpt lat="42.8601276" lon="-5.362421">
        <ele>1170.7</ele>
        <time>2016-05-03T15:32:31Z</time>
      </trkpt>
      <trkpt lat="42.860172" lon="-5.3621593">
        <ele>1170.0</ele>
        <time>2016-05-03T15:32:34Z</time>
      </trkpt>
      <trkpt lat="42.860202" lon="-5.3619417">
        <ele>1169.6</ele>
        <time>2016-05-03T15:32:37Z</time>
      </trkpt>
      <trkpt lat="42.8602426" lon="-5.3617195">
        <ele>1168.7</ele>
        <time>2016-05-03T15:32:41Z</time>
      </trkpt>
      <trkpt lat="42.8603001" lon="-5.3615171">
        <ele>1168.1</ele>
        <time>2016-05-03T15:32:44Z</time>
      </trkpt>
      <trkpt lat="42.8602639" lon="-5.3612819">
        <ele>1167.3</ele>
        <time>2016-05-03T15:32:48Z</time>
      </trkpt>
      <trkpt lat="42.8603122" lon="-5.3610556">
        <ele>1166.9</ele>
        <time>2016-05-03T15:32:51Z</time>
      </trkpt>
      <trkpt lat="42.860412" lon="-5.3608549">
        <ele>1163.7</ele>
        <time>2016-05-03T15:32:54Z</time>
      </trkpt>
      <trkpt lat="42.8604929" lon="-5.3607046">
        <ele>1158.2</ele>
        <time>2016-05-03T15:32:57Z</time>
      </trkpt>
      <trkpt lat="42.8606254" lon="-5.3605299">
        <ele>1154.2</ele>
        <time>2016-05-03T15:33:00Z</time>
      </trkpt>
      <trkpt lat="42.8607344" lon="-5.3603914">
        <ele>1152.4</ele>
        <time>2016-05-03T15:33:02Z</time>
      </trkpt>
      <trkpt lat="42.8606811" lon="-5.3601806">
        <ele>1149.1</ele>
        <time>2016-05-03T15:33:05Z</time>
      </trkpt>
      <trkpt lat="42.8606823" lon="-5.3601129">
        <ele>1146.3</ele>
        <time>2016-05-03T15:33:07Z</time>
      </trkpt>
      <trkpt lat="42.8606693" lon="-5.3600518">
        <ele>1146.3</ele>
        <time>2016-05-03T15:33:09Z</time>
      </trkpt>
      <trkpt lat="42.8606243" lon="-5.3600133">
        <ele>1143.3</ele>
        <time>2016-05-03T15:33:11Z</time>
      </trkpt>
      <trkpt lat="42.860567" lon="-5.3600218">
        <ele>1143.3</ele>
        <time>2016-05-03T15:33:13Z</time>
      </trkpt>
      <trkpt lat="42.8605219" lon="-5.3600669">
        <ele>1143.3</ele>
        <time>2016-05-03T15:33:14Z</time>
      </trkpt>
      <trkpt lat="42.8604525" lon="-5.3602376">
        <ele>1141.8</ele>
        <time>2016-05-03T15:33:16Z</time>
      </trkpt>
      <trkpt lat="42.8604115" lon="-5.3604849">
        <ele>1140.9</ele>
        <time>2016-05-03T15:33:18Z</time>
      </trkpt>
      <trkpt lat="42.860384" lon="-5.3607477">
        <ele>1140.4</ele>
        <time>2016-05-03T15:33:20Z</time>
      </trkpt>
      <trkpt lat="42.8603307" lon="-5.3609868">
        <ele>1140.0</ele>
        <time>2016-05-03T15:33:22Z</time>
      </trkpt>
      <trkpt lat="42.8602595" lon="-5.3611812">
        <ele>1139.8</ele>
        <time>2016-05-03T15:33:24Z</time>
      </trkpt>
      <trkpt lat="42.8600959" lon="-5.3612647">
        <ele>1139.5</ele>
        <time>2016-05-03T15:33:27Z</time>
      </trkpt>
      <trkpt lat="42.8600538" lon="-5.3610752">
        <ele>1139.0</ele>
        <time>2016-05-03T15:33:30Z</time>
      </trkpt>
      <trkpt lat="42.8600908" lon="-5.3608586">
        <ele>1138.5</ele>
        <time>2016-05-03T15:33:33Z</time>
      </trkpt>
      <trkpt lat="42.8600865" lon="-5.3606111">
        <ele>1138.0</ele>
        <time>2016-05-03T15:33:36Z</time>
      </trkpt>
      <trkpt lat="42.8601281" lon="-5.3603984">
        <ele>1137.6</ele>
        <time>2016-05-03T15:33:39Z</time>
      </trkpt>
      <trkpt lat="42.8601335" lon="-5.360182">
        <ele>1137.3</ele>
        <time>2016-05-03T15:33:42Z</time>
      </trkpt>
      <trkpt lat="42.8600427" lon="-5.3600195">
        <ele>1136.5</ele>
        <time>2016-05-03T15:33:45Z</time>
      </trkpt>
      <trkpt lat="42.8599926" lon="-5.3598444">
        <ele>1135.0</ele>
        <time>2016-05-03T15:33:48Z</time>
      </trkpt>
      <trkpt lat="42.8599684" lon="-5.3596253">
        <ele>1133.5</ele>
        <time>2016-05-03T15:33:51Z</time>
      </trkpt>
      <trkpt lat="42.8599223" lon="-5.3594152">
        <ele>1131.2</ele>
        <time>2016-05-03T15:33:54Z</time>
      </trkpt>
      <trkpt lat="42.8597193" lon="-5.3593907">
        <ele>1127.4</ele>
        <time>2016-05-03T15:33:57Z</time>
      </trkpt>
      <trkpt lat="42.8595904" lon="-5.3594118">
        <ele>1117.1</ele>
        <time>2016-05-03T15:33:59Z</time>
      </trkpt>
      <trkpt lat="42.8595325" lon="-5.3594101">
        <ele>1117.1</ele>
        <time>2016-05-03T15:34:00Z</time>
      </trkpt>
      <trkpt lat="42.8594734" lon="-5.3593681">
        <ele>1117.1</ele>
        <time>2016-05-03T15:34:01Z</time>
      </trkpt>
      <trkpt lat="42.85941" lon="-5.3593245">
        <ele>1117.1</ele>
        <time>2016-05-03T15:34:02Z</time>
      </trkpt>
      <trkpt lat="42.8593449" lon="-5.3592662">
        <ele>1117.1</ele>
        <time>2016-05-03T15:34:03Z</time>
      </trkpt>
      <trkpt lat="42.859225" lon="-5.3591541">
        <ele>1113.6</ele>
        <time>2016-05-03T15:34:05Z</time>
      </trkpt>
      <trkpt lat="42.8590658" lon="-5.3589906">
        <ele>1109.5</ele>
        <time>2016-05-03T15:34:08Z</time>
      </trkpt>
      <trkpt lat="42.8589644" lon="-5.3588343">
        <ele>1108.6</ele>
        <time>2016-05-03T15:34:10Z</time>
      </trkpt>
      <trkpt lat="42.8588586" lon="-5.3586357">
        <ele>1104.6</ele>
        <time>2016-05-03T15:34:13Z</time>
      </trkpt>
      <trkpt lat="42.85884" lon="-5.3585782">
        <ele>1100.1</ele>
        <time>2016-05-03T15:34:14Z</time>
      </trkpt>
      <trkpt lat="42.8587938" lon="-5.3585104">
        <ele>1100.1</ele>
        <time>2016-05-03T15:34:16Z</time>
      </trkpt>
      <trkpt lat="42.8587893" lon="-5.3585761">
        <ele>1056.3</ele>
        <time>2016-05-03T15:35:07Z</time>
      </trkpt>
      <trkpt lat="42.858749" lon="-5.3586257">
        <ele>1055.7</ele>
        <time>2016-05-03T15:35:12Z</time>
      </trkpt>
      <trkpt lat="42.8586967" lon="-5.3586846">
        <ele>1055.6</ele>
        <time>2016-05-03T15:35:17Z</time>
      </trkpt>
      <trkpt lat="42.8586617" lon="-5.3587297">
        <ele>1055.5</ele>
        <time>2016-05-03T15:35:21Z</time>
      </trkpt>
      <trkpt lat="42.8586443" lon="-5.3587941">
        <ele>1055.5</ele>
        <time>2016-05-03T15:35:27Z</time>
      </trkpt>
      <trkpt lat="42.8586406" lon="-5.3588644">
        <ele>1055.2</ele>
        <time>2016-05-03T15:35:32Z</time>
      </trkpt>
      <trkpt lat="42.8586083" lon="-5.3588065">
        <ele>1052.9</ele>
        <time>2016-05-03T15:36:00Z</time>
      </trkpt>
      <trkpt lat="42.8586052" lon="-5.3587446">
        <ele>1052.6</ele>
        <time>2016-05-03T15:36:05Z</time>
      </trkpt>
      <trkpt lat="42.8586029" lon="-5.3587336">
        <ele>1052.4</ele>
        <time>2016-05-03T15:36:10Z</time>
      </trkpt>
      <trkpt lat="42.8586029" lon="-5.3587336">
        <time>2016-05-03T15:36:11Z</time>
      </trkpt>
    </trkseg>
    <trkseg>
      <trkpt lat="42.8586029" lon="-5.3587336">
        <time>2016-05-03T15:36:12Z</time>
      </trkpt>
    </trkseg>
  </trk>
</gpx>